Terminal Aerodrome Forecast
Issued by NWS Charleston, WV

Current Version | Previous Version | Graphics & Text | Print | Product List | Glossary On
Versions: 1 2 3 4 5 6 7 8 9 10 11 12 13 14 15 16 17 18 19 20 21 22 23 24 25
000
FTUS41 KRLX 202100 AAA
TAFBKW
TAF AMD
KBKW 202101Z 2021/2118 24006KT P6SM VCSH FEW020 SCT040 BKN060
     FM210000 16005KT P6SM SCT025
     FM210500 15004KT 4SM BR SCT020
     FM210900 00000KT 3SM BR BKN020
     FM211300 VRB03KT P6SM BKN035=

USA.gov is the U.S. government's official web portal to all federal, state and local government web resources and services.